Time;durP1;ratioP1;P1;durP2;ratioP2;P2;SDS_P1;SDS_P2;PMS_P1;PMS_P2;Temp;Humidity;BMP_temperature;BMP_pressure;BME280_temperature;BME280_humidity;BME280_pressure;Samples;Min_cycle;Max_cycle;Signal;HPM_P1;HPM_P2
2022/05/31 00:01:43;;;;;;;3.80;3.00;;;;;;;13.09;53.55;98381.66;6921184;28;20236;-78
2022/05/31 00:05:09;;;;;;;3.40;3.10;;;;;;;13.36;52.89;98379.34;6921222;28;20681;-78
2022/05/31 00:08:32;;;;;;;3.83;3.20;;;;;;;13.13;53.17;98368.47;6920659;28;20199;-77
2022/05/31 00:11:55;;;;;;;6.40;3.30;;;;;;;12.84;54.12;98358.47;6921240;28;20219;-78
2022/05/31 00:15:19;;;;;;;3.23;3.03;;;;;;;12.95;53.74;98377.50;6919947;28;20594;-77
2022/05/31 00:18:41;;;;;;;3.30;3.10;;;;;;;13.24;53.79;98373.94;6919910;28;20189;-77
2022/05/31 00:22:08;;;;;;;3.67;2.90;;;;;;;12.97;54.20;98363.72;6921174;28;20207;-77
2022/05/31 00:25:29;;;;;;;2.93;2.67;;;;;;;13.34;53.13;98378.78;6925503;28;20270;-77
2022/05/31 00:28:50;;;;;;;3.63;3.33;;;;;;;13.29;53.04;98370.50;6923949;28;20287;-78
2022/05/31 00:32:13;;;;;;;5.23;3.07;;;;;;;13.14;52.71;98375.53;6920486;28;20260;-78
2022/05/31 00:35:38;;;;;;;3.40;3.00;;;;;;;13.09;52.94;98326.72;6920627;28;20227;-78
2022/05/31 00:39:01;;;;;;;3.47;2.87;;;;;;;13.29;52.78;98365.09;6919855;28;20721;-78
2022/05/31 00:42:23;;;;;;;4.40;3.20;;;;;;;13.23;52.41;98358.72;6920236;28;20335;-77
2022/05/31 00:45:46;;;;;;;3.57;2.70;;;;;;;13.07;53.39;98370.25;6920380;28;20272;-77
2022/05/31 00:49:10;;;;;;;3.23;2.93;;;;;;;13.46;51.79;98356.03;6919559;28;20231;-78
2022/05/31 00:52:35;;;;;;;4.00;3.00;;;;;;;13.54;51.96;98352.16;6920227;28;20247;-78
2022/05/31 00:56:02;;;;;;;3.20;2.90;;;;;;;13.89;50.76;98356.53;6920100;28;20322;-77
2022/05/31 00:59:28;;;;;;;4.13;2.77;;;;;;;13.41;52.33;98350.53;6919078;28;20272;-77
2022/05/31 01:02:50;;;;;;;4.50;3.20;;;;;;;13.40;52.12;98362.41;6919075;28;20651;-78
2022/05/31 01:06:12;;;;;;;3.20;2.90;;;;;;;13.07;53.12;98366.69;6919757;28;20676;-78
2022/05/31 01:09:34;;;;;;;5.77;3.37;;;;;;;13.03;51.97;98358.22;6919232;28;20231;-78
2022/05/31 01:12:58;;;;;;;3.80;3.13;;;;;;;12.78;53.93;98368.34;6919884;28;20204;-78
2022/05/31 01:16:20;;;;;;;3.93;2.90;;;;;;;12.66;54.08;98369.34;6918582;28;20228;-78
2022/05/31 01:19:56;;;;;;;3.60;3.00;;;;;;;13.01;53.26;98367.63;6918755;28;20316;-78
2022/05/31 01:23:19;;;;;;;4.03;3.00;;;;;;;13.25;52.51;98390.97;6919526;28;20286;-78
2022/05/31 01:26:47;;;;;;;5.03;3.43;;;;;;;12.90;53.20;98377.31;6919482;28;20259;-78
2022/05/31 01:30:09;;;;;;;3.30;3.00;;;;;;;12.66;53.85;98380.16;6918791;28;20290;-77
2022/05/31 01:33:34;;;;;;;5.83;3.33;;;;;;;12.87;53.52;98383.19;6919620;28;20213;-77
2022/05/31 01:36:57;;;;;;;4.33;3.20;;;;;;;13.15;52.95;98377.22;6918923;28;20375;-78
2022/05/31 01:40:25;;;;;;;5.60;3.23;;;;;;;13.21;52.93;98376.28;6918680;28;20235;-76
2022/05/31 01:43:49;;;;;;;3.53;3.23;;;;;;;13.09;52.74;98375.44;6919454;28;20262;-77
2022/05/31 01:47:11;;;;;;;4.60;3.20;;;;;;;13.07;52.99;98372.09;6919142;28;20239;-77
2022/05/31 01:50:32;;;;;;;4.20;2.97;;;;;;;13.08;52.78;98388.13;6918664;28;20237;-77
2022/05/31 01:53:55;;;;;;;3.33;3.03;;;;;;;12.95;53.46;98384.75;6918683;28;20299;-77
2022/05/31 01:57:18;;;;;;;5.87;3.60;;;;;;;12.90;53.22;98362.97;6923334;28;20838;-78
2022/05/31 02:00:40;;;;;;;3.10;2.90;;;;;;;13.22;52.54;98375.22;6945599;28;20322;-78
2022/05/31 02:04:02;;;;;;;3.43;3.13;;;;;;;13.23;52.13;98366.84;6946049;28;20208;-78
2022/05/31 02:07:25;;;;;;;3.03;2.83;;;;;;;12.92;52.37;98372.50;6946286;28;20291;-78
2022/05/31 02:10:47;;;;;;;5.53;3.17;;;;;;;12.90;52.66;98374.63;6945258;28;20238;-77
2022/05/31 02:14:10;;;;;;;3.07;2.87;;;;;;;12.84;53.11;98367.44;6946344;28;20211;-79
2022/05/31 02:17:32;;;;;;;3.20;3.00;;;;;;;13.04;52.63;98367.16;6950980;28;20254;-80
2022/05/31 02:20:53;;;;;;;3.40;3.00;;;;;;;12.82;52.52;98366.84;6951543;28;20260;-79
2022/05/31 02:24:15;;;;;;;4.47;3.20;;;;;;;12.72;53.75;98352.19;6951745;28;20360;-78
2022/05/31 02:27:37;;;;;;;4.50;3.37;;;;;;;12.75;53.90;98357.97;6950194;28;20257;-78
2022/05/31 02:31:00;;;;;;;4.40;3.10;;;;;;;12.80;53.45;98360.00;6950401;28;20258;-77
2022/05/31 02:34:23;;;;;;;3.20;2.90;;;;;;;13.01;53.00;98368.47;6950604;28;20206;-77
2022/05/31 02:37:45;;;;;;;3.33;3.10;;;;;;;12.50;53.86;98359.97;6949852;28;20262;-77
2022/05/31 02:41:07;;;;;;;3.80;3.27;;;;;;;12.56;54.09;98348.25;6950317;28;20238;-77
2022/05/31 02:44:28;;;;;;;3.30;3.00;;;;;;;12.77;53.16;98334.25;6949956;28;20293;-77
2022/05/31 02:47:51;;;;;;;4.00;3.20;;;;;;;12.43;54.71;98369.22;6949048;28;20202;-78
2022/05/31 02:51:13;;;;;;;3.80;3.50;;;;;;;12.51;54.58;98375.16;6949511;28;20691;-77
2022/05/31 02:54:34;;;;;;;3.60;3.30;;;;;;;12.61;54.46;98356.50;6949302;28;20219;-78
2022/05/31 02:57:56;;;;;;;5.87;3.70;;;;;;;12.81;53.77;98361.66;6950102;28;20636;-77
2022/05/31 03:01:23;;;;;;;3.70;3.37;;;;;;;12.63;53.57;98359.81;6950875;28;20337;-77
2022/05/31 03:04:46;;;;;;;4.67;3.20;;;;;;;12.68;53.77;98361.84;6952833;28;20208;-79
2022/05/31 03:08:08;;;;;;;3.50;3.20;;;;;;;12.69;53.86;98364.28;6952725;28;20606;-78
2022/05/31 03:11:32;;;;;;;6.37;3.40;;;;;;;11.45;55.81;98353.25;6954120;28;20226;-80
2022/05/31 03:14:57;;;;;;;3.50;3.20;;;;;;;12.31;54.82;98389.97;6952740;28;20239;-79
2022/05/31 03:18:22;;;;;;;3.70;3.40;;;;;;;12.01;55.50;98387.19;6952942;28;20310;-80
2022/05/31 03:21:47;;;;;;;3.70;3.40;;;;;;;12.27;55.41;98395.00;6953004;28;20313;-80
2022/05/31 03:25:11;;;;;;;3.37;3.03;;;;;;;12.33;54.80;98385.97;6953014;28;20211;-80
2022/05/31 03:28:34;;;;;;;3.53;3.23;;;;;;;12.30;55.23;98391.84;6951890;28;20373;-80
2022/05/31 03:31:55;;;;;;;3.80;3.40;;;;;;;12.56;54.40;98378.00;6953800;28;20234;-79
2022/05/31 03:35:17;;;;;;;3.50;3.20;;;;;;;12.47;53.03;98373.97;6953442;28;20207;-79
2022/05/31 03:38:40;;;;;;;3.53;3.13;;;;;;;12.40;53.57;98391.31;6953620;28;20227;-78
2022/05/31 03:42:02;;;;;;;3.43;3.13;;;;;;;12.55;53.45;98387.16;6954322;28;20234;-79
2022/05/31 03:45:23;;;;;;;3.63;3.33;;;;;;;12.20;53.58;98380.75;6967929;28;20191;-80
2022/05/31 03:48:45;;;;;;;4.23;3.20;;;;;;;11.94;54.54;98347.78;6956690;28;20227;-82
2022/05/31 03:52:07;;;;;;;3.33;3.10;;;;;;;12.23;53.93;98360.53;6953690;28;20326;-82
2022/05/31 03:55:29;;;;;;;4.73;3.57;;;;;;;12.48;53.73;98380.19;6962709;28;20206;-82
2022/05/31 03:58:51;;;;;;;3.97;3.50;;;;;;;12.45;53.69;98359.84;6948854;28;20227;-82
2022/05/31 04:02:13;;;;;;;3.77;3.13;;;;;;;12.51;54.65;98375.16;6950453;28;20215;-82
2022/05/31 04:05:34;;;;;;;3.57;3.10;;;;;;;12.37;55.09;98380.94;6950035;28;20686;-82
2022/05/31 04:08:56;;;;;;;3.60;3.30;;;;;;;12.35;55.43;98378.50;6949578;28;20246;-82
2022/05/31 04:12:19;;;;;;;3.33;3.03;;;;;;;12.40;55.22;98348.06;6950041;28;20223;-79
2022/05/31 04:15:41;;;;;;;3.57;3.27;;;;;;;12.92;54.01;98369.78;6944486;28;20211;-79
2022/05/31 04:19:03;;;;;;;3.17;2.97;;;;;;;13.17;52.58;98385.91;6950319;28;20274;-78
2022/05/31 04:22:25;;;;;;;3.50;3.20;;;;;;;13.09;53.06;98370.81;6950506;28;20209;-80
2022/05/31 04:25:46;;;;;;;3.63;3.33;;;;;;;13.06;52.52;98365.06;6955877;28;20248;-79
2022/05/31 04:29:09;;;;;;;3.20;2.90;;;;;;;12.89;53.40;98353.19;6922400;28;20759;-79
2022/05/31 04:32:31;;;;;;;3.00;2.80;;;;;;;12.89;53.78;98361.31;6925991;28;20236;-80
2022/05/31 04:35:59;;;;;;;5.33;3.43;;;;;;;12.23;55.19;98366.75;6923987;28;20220;-79
2022/05/31 04:39:21;;;;;;;3.73;3.43;;;;;;;12.35;55.96;98366.84;6922407;28;20228;-80
2022/05/31 04:42:43;;;;;;;3.70;3.40;;;;;;;12.24;56.45;98370.31;6923208;28;20703;-81
2022/05/31 04:46:16;;;;;;;4.33;3.53;;;;;;;12.37;56.10;98375.53;6922630;28;20202;-81
2022/05/31 04:49:37;;;;;;;3.90;3.60;;;;;;;12.80;55.85;98360.81;6947914;28;20223;-78
2022/05/31 04:52:59;;;;;;;3.80;3.50;;;;;;;13.16;54.75;98359.91;6948390;28;20298;-79
2022/05/31 04:56:21;;;;;;;3.70;3.40;;;;;;;13.69;53.47;98364.19;6955378;28;20226;-79
2022/05/31 04:59:43;;;;;;;4.10;3.30;;;;;;;14.09;52.66;98356.97;6930620;28;20585;-79
2022/05/31 05:03:06;;;;;;;4.47;3.07;;;;;;;14.51;51.22;98350.31;6930986;28;20583;-79
2022/05/31 05:06:28;;;;;;;4.73;3.20;;;;;;;14.47;51.12;98349.16;6977002;28;20204;-79
2022/05/31 05:09:49;;;;;;;3.23;3.03;;;;;;;15.03;49.91;98349.13;6966651;28;20230;-79
2022/05/31 05:13:11;;;;;;;4.10;3.70;;;;;;;15.56;48.29;98349.53;6950150;28;20208;-85
2022/05/31 05:16:33;;;;;;;3.30;3.00;;;;;;;15.18;48.58;98329.56;6949066;28;20311;-78
2022/05/31 05:19:56;;;;;;;4.17;3.77;;;;;;;15.81;48.29;98316.50;6965394;28;20255;-79
2022/05/31 05:23:17;;;;;;;5.27;2.70;;;;;;;16.50;46.75;98340.28;6958902;28;20210;-79
2022/05/31 05:26:39;;;;;;;3.30;2.90;;;;;;;16.02;48.23;98332.00;6950269;28;20325;-79
2022/05/31 05:33:39;;;;;;;3.90;2.80;;;;;;;16.34;47.23;98322.09;6949367;28;20650;-79
2022/05/31 05:37:02;;;;;;;2.90;2.70;;;;;;;17.23;44.98;98322.28;6948655;28;20248;-77
2022/05/31 05:40:24;;;;;;;4.37;2.40;;;;;;;17.27;45.18;98325.31;6949153;28;20222;-77
2022/05/31 05:43:46;;;;;;;3.00;2.50;;;;;;;17.83;43.67;98321.97;6948236;28;20298;-76
2022/05/31 05:47:08;;;;;;;3.23;2.93;;;;;;;17.41;44.38;98318.38;6956207;28;20201;-75
2022/05/31 05:50:30;;;;;;;3.00;2.60;;;;;;;17.40;44.85;98333.09;6976273;28;20327;-76
2022/05/31 05:53:53;;;;;;;5.20;3.50;;;;;;;18.16;43.07;98313.44;6980481;28;20220;-75
2022/05/31 05:57:14;;;;;;;3.30;3.00;;;;;;;18.56;41.85;98317.19;6969021;28;20578;-77
2022/05/31 06:00:39;;;;;;;3.10;2.90;;;;;;;18.65;41.89;98318.31;6975660;28;20256;-76
2022/05/31 06:04:02;;;;;;;3.53;3.20;;;;;;;19.00;42.02;98320.31;6952751;28;20207;-77
2022/05/31 06:07:29;;;;;;;3.10;2.80;;;;;;;19.05;41.87;98323.06;6952823;28;20280;-77
2022/05/31 06:11:01;;;;;;;4.90;3.00;;;;;;;19.67;41.33;98327.22;6960827;28;20309;-76
2022/05/31 06:14:24;;;;;;;3.77;3.20;;;;;;;19.59;40.80;98322.31;6960418;28;20196;-76
2022/05/31 06:17:47;;;;;;;3.67;3.27;;;;;;;20.28;40.43;98325.22;6952512;28;20679;-77
2022/05/31 06:21:09;;;;;;;5.13;3.13;;;;;;;19.94;40.07;98327.72;6951794;28;20587;-78
2022/05/31 06:24:32;;;;;;;8.07;3.27;;;;;;;19.96;41.15;98330.19;6950971;28;20207;-76
2022/05/31 06:27:55;;;;;;;4.57;3.67;;;;;;;20.00;41.28;98323.06;6951003;28;20336;-76
2022/05/31 06:31:17;;;;;;;3.43;3.03;;;;;;;20.40;40.35;98326.53;6978357;28;20587;-75
2022/05/31 06:34:39;;;;;;;4.00;3.40;;;;;;;20.19;40.96;98333.19;6979684;28;20206;-76
2022/05/31 06:38:02;;;;;;;4.07;3.27;;;;;;;20.78;39.91;98312.13;6978333;28;20299;-76
2022/05/31 06:41:23;;;;;;;5.83;3.50;;;;;;;20.87;40.33;98315.91;6974294;28;20222;-76
2022/05/31 06:44:46;;;;;;;3.90;3.60;;;;;;;20.59;39.42;98311.16;6951956;28;20210;-77
2022/05/31 06:48:08;;;;;;;4.03;3.33;;;;;;;21.34;39.06;98321.66;6948401;28;20237;-76
2022/05/31 06:58:48;;;;;;;4.70;2.93;;;;;;;21.56;38.46;98320.13;6948704;28;20621;-77
2022/05/31 07:02:11;;;;;;;4.27;3.07;;;;;;;21.44;39.14;98316.94;6946379;28;20739;-77
2022/05/31 07:05:33;;;;;;;7.47;2.77;;;;;;;21.79;38.36;98308.44;6971447;28;20184;-77
2022/05/31 07:08:54;;;;;;;2.90;2.60;;;;;;;21.93;38.85;98311.28;6951798;28;20590;-77
2022/05/31 07:12:16;;;;;;;4.10;2.80;;;;;;;22.80;37.64;98303.44;6968648;28;20233;-76
2022/05/31 07:15:40;;;;;;;2.90;2.60;;;;;;;22.75;36.67;98289.75;6953162;28;20199;-76
2022/05/31 07:19:03;;;;;;;4.37;2.67;;;;;;;22.71;37.42;98282.41;6952136;28;20367;-76
2022/05/31 07:22:25;;;;;;;4.77;2.40;;;;;;;23.50;36.05;98290.56;6966499;28;20203;-76
2022/05/31 07:25:46;;;;;;;3.87;2.23;;;;;;;23.56;34.68;98272.84;6966472;28;20218;-76
2022/05/31 07:29:09;;;;;;;3.40;2.03;;;;;;;22.47;37.05;98267.84;6953399;28;20697;-77
2022/05/31 07:32:30;;;;;;;2.50;2.30;;;;;;;24.02;35.04;98293.00;6944930;28;20219;-76
2022/05/31 07:36:08;;;;;;;3.27;1.97;;;;;;;24.96;32.90;98278.38;6949670;28;20236;-76
2022/05/31 07:39:30;;;;;;;2.40;1.83;;;;;;;24.60;32.46;98269.25;6811458;29;20366;-76
2022/05/31 07:42:51;;;;;;;3.37;1.90;;;;;;;24.36;33.43;98272.19;6811411;29;20222;-76
2022/05/31 07:46:13;;;;;;;2.20;2.00;;;;;;;24.90;33.27;98277.66;6811029;29;20751;-76
2022/05/31 07:49:35;;;;;;;1.97;1.70;;;;;;;23.83;34.43;98259.97;6809517;29;20232;-76
2022/05/31 07:52:59;;;;;;;3.43;1.93;;;;;;;24.01;34.40;98270.13;6810870;29;20212;-76
2022/05/31 07:56:22;;;;;;;3.17;1.83;;;;;;;25.59;32.38;98273.56;6810147;29;20223;-77
2022/05/31 07:59:43;;;;;;;1.93;1.83;;;;;;;25.87;33.43;98267.56;6811091;29;20291;-76
2022/05/31 08:03:06;;;;;;;2.00;1.80;;;;;;;25.24;32.86;98272.47;6800265;29;20226;-77
2022/05/31 08:06:30;;;;;;;3.13;1.80;;;;;;;26.03;31.90;98266.06;6786746;29;20204;-76
2022/05/31 08:09:53;;;;;;;2.23;1.97;;;;;;;25.70;31.51;98274.91;6784833;29;20321;-76
2022/05/31 08:13:15;;;;;;;2.10;1.90;;;;;;;26.55;30.56;98276.19;6791709;29;20205;-77
2022/05/31 08:16:38;;;;;;;2.57;1.90;;;;;;;25.72;31.31;98275.44;6897108;28;20219;-77
2022/05/31 08:19:59;;;;;;;3.40;1.70;;;;;;;26.54;30.22;98262.72;6948994;28;20233;-77
2022/05/31 08:23:21;;;;;;;2.03;1.90;;;;;;;25.93;31.25;98269.09;6950320;28;20198;-77
2022/05/31 08:26:44;;;;;;;2.47;2.00;;;;;;;26.56;31.25;98266.78;6974853;28;20684;-77
2022/05/31 08:30:07;;;;;;;2.27;2.07;;;;;;;26.63;31.11;98252.47;6965150;28;20224;-76
2022/05/31 08:33:29;;;;;;;2.40;2.17;;;;;;;26.35;30.53;98253.81;6937924;28;20289;-77
2022/05/31 08:36:50;;;;;;;2.83;2.00;;;;;;;25.78;31.88;98255.66;6955837;28;20208;-77
2022/05/31 08:40:13;;;;;;;56.43;13.27;;;;;;;25.57;32.95;98257.31;6973697;28;20229;-76
2022/05/31 08:43:48;;;;;;;3.10;2.00;;;;;;;26.40;30.94;98246.22;6950870;28;20209;-76
2022/05/31 08:47:19;;;;;;;2.50;2.07;;;;;;;27.28;30.41;98228.31;6965823;28;20232;-76
2022/05/31 08:58:18;;;;;;;2.20;2.00;;;;;;;27.58;29.36;98235.59;6932822;28;20776;-77
2022/05/31 09:01:49;;;;;;;4.20;1.93;;;;;;;27.00;29.81;98244.41;6967935;28;20231;-76
2022/05/31 09:05:14;;;;;;;3.87;1.97;;;;;;;28.32;27.84;98240.44;6955204;28;20252;-76
2022/05/31 09:08:39;;;;;;;3.60;1.87;;;;;;;28.71;28.10;98215.13;6974872;28;20210;-76
2022/05/31 09:12:03;;;;;;;2.00;1.90;;;;;;;28.44;27.24;98242.56;6975101;28;20302;-77
2022/05/31 09:15:31;;;;;;;2.00;1.80;;;;;;;27.17;29.33;98247.22;6975676;28;20294;-76
2022/05/31 09:18:58;;;;;;;2.27;1.60;;;;;;;28.98;26.53;98234.09;6945173;28;20227;-78
2022/05/31 09:22:20;;;;;;;3.67;1.70;;;;;;;28.48;26.93;98244.31;6961162;28;20202;-76
2022/05/31 09:25:42;;;;;;;1.93;1.43;;;;;;;28.22;26.64;98232.53;6952375;28;20337;-76
2022/05/31 09:29:09;;;;;;;2.00;1.80;;;;;;;28.66;25.03;98258.91;6954008;28;20227;-77
2022/05/31 09:32:54;;;;;;;1.90;1.60;;;;;;;28.21;25.61;98230.91;6952682;28;20198;-77
2022/05/31 09:36:22;;;;;;;3.93;2.00;;;;;;;27.40;28.00;98237.59;6953094;28;20188;-77
2022/05/31 09:39:53;;;;;;;1.93;1.73;;;;;;;27.48;27.29;98235.97;6952378;28;20598;-77
2022/05/31 09:43:20;;;;;;;2.47;1.97;;;;;;;28.65;26.02;98251.72;6942924;28;20195;-77
2022/05/31 09:46:44;;;;;;;2.43;1.90;;;;;;;28.17;27.42;98223.56;6949251;28;20286;-78
2022/05/31 09:50:06;;;;;;;2.27;1.87;;;;;;;29.04;25.50;98241.06;6953504;28;20225;-77
2022/05/31 09:57:15;;;;;;;3.27;2.10;;;;;;;28.37;27.00;98239.50;6951875;28;20218;-77
2022/05/31 10:00:38;;;;;;;3.50;2.03;;;;;;;28.46;26.62;98246.63;6928929;28;20229;-77
2022/05/31 10:04:08;;;;;;;2.87;1.90;;;;;;;28.35;26.18;98236.19;6952013;28;20569;-77
2022/05/31 10:07:35;;;;;;;3.03;2.00;;;;;;;27.83;27.29;98246.66;6951803;28;20208;-77
2022/05/31 10:11:04;;;;;;;3.33;2.00;;;;;;;27.97;27.51;98235.38;6952037;28;20211;-77
2022/05/31 10:14:27;;;;;;;4.97;2.83;;;;;;;27.34;28.48;98215.94;6943246;28;20201;-76
2022/05/31 10:18:00;;;;;;;4.07;1.90;;;;;;;27.17;27.21;98238.09;6951082;28;20232;-77
2022/05/31 10:21:34;;;;;;;2.73;1.70;;;;;;;27.84;27.22;98230.88;6948977;28;20228;-77
2022/05/31 10:24:56;;;;;;;2.50;1.97;;;;;;;26.90;26.79;98219.81;6951772;28;20225;-77
2022/05/31 10:28:29;;;;;;;2.50;1.80;;;;;;;28.24;25.95;98205.25;6977948;28;20675;-77
2022/05/31 10:31:51;;;;;;;2.00;1.80;;;;;;;28.94;24.04;98218.38;6959403;28;20203;-77
2022/05/31 10:35:15;;;;;;;3.70;1.77;;;;;;;28.01;25.74;98219.72;6938380;28;20286;-77
2022/05/31 10:38:41;;;;;;;5.60;2.17;;;;;;;27.67;25.96;98217.03;6957595;28;20227;-77
2022/05/31 10:42:04;;;;;;;2.67;1.97;;;;;;;28.20;25.39;98201.50;6963762;28;20252;-77
2022/05/31 10:45:31;;;;;;;2.70;1.97;;;;;;;28.21;25.82;98186.53;6955859;28;20286;-77
2022/05/31 10:48:54;;;;;;;3.07;2.17;;;;;;;27.65;25.82;98209.03;6945866;28;20222;-77
2022/05/31 10:52:22;;;;;;;4.50;2.30;;;;;;;27.25;26.72;98201.28;6950791;28;20200;-77
2022/05/31 10:55:48;;;;;;;2.53;2.10;;;;;;;28.22;26.59;98192.88;6951455;28;20196;-78
2022/05/31 10:59:17;;;;;;;2.40;2.00;;;;;;;28.37;25.33;98173.72;6946956;28;20224;-77
2022/05/31 11:03:17;;;;;;;4.17;2.00;;;;;;;29.20;24.91;98205.94;6944248;28;20214;-77
2022/05/31 11:06:57;;;;;;;4.17;1.93;;;;;;;27.92;25.06;98194.00;6947550;28;20214;-76
2022/05/31 11:14:26;;;;;;;4.20;2.30;;;;;;;27.96;26.94;98212.38;6926022;28;20196;-76
2022/05/31 11:18:32;;;;;;;2.40;2.20;;;;;;;27.81;26.02;98203.81;6967362;28;20730;-78
2022/05/31 11:22:12;;;;;;;3.93;2.20;;;;;;;26.92;27.44;98202.91;6916239;28;20234;-78
2022/05/31 11:25:43;;;;;;;4.53;2.10;;;;;;;28.85;26.75;98196.25;6953772;28;20567;-77
2022/05/31 11:29:18;;;;;;;2.20;2.00;;;;;;;29.08;25.61;98210.66;6944685;28;20221;-77
2022/05/31 11:32:50;;;;;;;3.07;2.47;;;;;;;29.21;25.46;98209.56;6951408;28;20226;-77
2022/05/31 11:36:21;;;;;;;6.10;2.20;;;;;;;28.58;25.77;98218.97;6945904;28;20290;-77
2022/05/31 11:39:57;;;;;;;3.47;2.20;;;;;;;29.35;24.52;98219.22;6950006;28;20322;-77
2022/05/31 11:43:41;;;;;;;3.27;2.00;;;;;;;29.55;24.23;98218.41;6956653;28;20209;-77
2022/05/31 11:47:08;;;;;;;4.17;2.10;;;;;;;28.85;24.38;98224.00;6975256;28;20204;-77
2022/05/31 11:50:38;;;;;;;3.27;2.30;;;;;;;28.53;24.41;98223.88;6969036;28;20224;-77
2022/05/31 11:54:17;;;;;;;5.63;2.00;;;;;;;28.38;25.00;98222.50;6950157;28;20692;-77
2022/05/31 11:57:53;;;;;;;4.20;2.10;;;;;;;27.30;25.16;98229.63;6925052;28;20208;-77
2022/05/31 12:01:19;;;;;;;2.40;1.93;;;;;;;26.87;26.16;98220.47;6950035;28;20227;-77
2022/05/31 12:04:44;;;;;;;2.97;2.07;;;;;;;27.69;24.47;98223.03;6944602;28;20200;-77
2022/05/31 12:08:11;;;;;;;5.13;2.00;;;;;;;28.41;24.86;98216.31;6922607;28;20558;-77
2022/05/31 12:11:36;;;;;;;3.20;2.37;;;;;;;27.56;25.16;98224.06;6949980;28;20243;-76
2022/05/31 12:15:05;;;;;;;1.90;1.77;;;;;;;27.39;25.05;98224.91;6943486;28;20263;-77
2022/05/31 12:18:37;;;;;;;2.10;1.70;;;;;;;27.51;24.90;98219.50;6948391;28;20207;-77
2022/05/31 12:22:03;;;;;;;2.90;1.50;;;;;;;28.64;24.21;98209.31;6949757;28;20916;-77
2022/05/31 12:25:27;;;;;;;2.57;1.90;;;;;;;28.41;23.05;98212.69;6948977;28;20302;-77
2022/05/31 12:28:52;;;;;;;1.93;1.73;;;;;;;28.02;24.74;98210.25;6948516;28;20228;-77
2022/05/31 12:32:45;;;;;;;2.00;1.77;;;;;;;28.68;22.46;98221.38;6939229;28;20208;-78
2022/05/31 12:36:09;;;;;;;2.23;1.70;;;;;;;28.99;21.65;98219.03;6921303;28;20239;-77
2022/05/31 12:39:33;;;;;;;1.60;1.50;;;;;;;28.71;22.49;98222.66;6920992;28;20240;-77
2022/05/31 12:42:54;;;;;;;3.17;1.87;;;;;;;28.84;21.84;98204.94;6929458;28;20218;-77
2022/05/31 12:46:38;;;;;;;3.80;2.00;;;;;;;29.64;22.36;98213.59;6948750;28;20206;-77
2022/05/31 12:50:04;;;;;;;4.10;1.90;;;;;;;29.70;21.71;98206.66;6947087;28;20248;-77
2022/05/31 12:53:56;;;;;;;1.80;1.63;;;;;;;29.85;22.05;98211.53;6949642;28;20260;-77
2022/05/31 12:57:22;;;;;;;4.00;1.80;;;;;;;28.06;22.68;98205.66;6948749;28;20650;-77
2022/05/31 13:00:47;;;;;;;3.57;1.83;;;;;;;28.19;22.92;98188.00;6943969;28;20233;-77
2022/05/31 13:04:18;;;;;;;2.87;1.70;;;;;;;27.24;23.38;98205.22;6950353;28;20334;-76
2022/05/31 13:07:44;;;;;;;1.87;1.73;;;;;;;27.98;23.29;98195.44;6947157;28;20643;-78
2022/05/31 13:22:07;;;;;;;2.43;1.50;;;;;;;27.59;22.36;98207.59;6948588;28;20288;-77
2022/05/31 13:25:32;;;;;;;2.43;1.90;;;;;;;27.45;23.15;98206.16;6948485;28;20669;-77
2022/05/31 13:29:00;;;;;;;3.07;1.70;;;;;;;28.28;22.87;98205.41;6946838;28;20230;-76
2022/05/31 13:32:22;;;;;;;1.93;1.60;;;;;;;29.12;21.08;98209.63;6948722;28;20201;-76
2022/05/31 13:35:44;;;;;;;3.10;1.67;;;;;;;28.86;21.11;98197.91;6948262;28;20210;-75
2022/05/31 13:39:08;;;;;;;5.30;1.87;;;;;;;28.96;21.06;98207.81;6947269;28;20314;-76
2022/05/31 13:42:37;;;;;;;2.07;1.67;;;;;;;29.09;21.01;98204.78;6946403;28;20286;-76
2022/05/31 13:46:00;;;;;;;1.93;1.50;;;;;;;28.95;21.27;98204.22;6948382;28;20198;-76
2022/05/31 13:49:25;;;;;;;3.53;1.80;;;;;;;28.40;22.08;98209.13;6946665;28;20602;-76
2022/05/31 13:52:49;;;;;;;3.03;1.60;;;;;;;29.03;20.95;98211.69;6948260;28;20289;-76
2022/05/31 13:56:15;;;;;;;2.70;1.83;;;;;;;28.90;20.67;98209.94;6947243;28;20202;-76
2022/05/31 13:59:44;;;;;;;1.63;1.50;;;;;;;28.54;21.06;98197.78;6946611;28;20252;-77
2022/05/31 14:03:14;;;;;;;4.47;1.70;;;;;;;28.70;21.39;98213.50;6944635;28;20225;-77
2022/05/31 14:06:36;;;;;;;2.80;1.70;;;;;;;28.36;21.55;98207.34;6947482;28;20206;-76
2022/05/31 14:09:58;;;;;;;2.83;1.87;;;;;;;28.34;22.05;98204.88;6946900;28;20587;-76
2022/05/31 14:13:24;;;;;;;1.70;1.60;;;;;;;27.77;21.68;98211.97;6953763;28;20213;-77
2022/05/31 14:16:47;;;;;;;5.97;2.00;;;;;;;28.43;22.11;98219.53;6952337;28;20208;-76
2022/05/31 14:20:20;;;;;;;2.73;1.63;;;;;;;27.98;21.50;98204.56;6929425;28;20301;-76
2022/05/31 14:23:41;;;;;;;2.17;1.80;;;;;;;28.24;21.43;98212.78;6952713;28;20210;-76
2022/05/31 14:27:05;;;;;;;3.50;2.03;;;;;;;27.40;22.59;98195.22;6952548;28;20207;-76
2022/05/31 14:30:34;;;;;;;1.50;1.40;;;;;;;28.26;22.05;98219.59;6952022;28;20250;-76
2022/05/31 14:34:01;;;;;;;3.33;1.70;;;;;;;27.57;22.33;98209.06;6953023;28;20305;-76
2022/05/31 14:37:35;;;;;;;1.70;1.40;;;;;;;27.78;22.12;98204.47;6952062;28;20207;-77
2022/05/31 14:41:02;;;;;;;2.97;1.80;;;;;;;28.09;21.01;98203.06;6945995;28;20604;-75
2022/05/31 14:44:35;;;;;;;2.00;1.57;;;;;;;28.01;21.99;98208.63;6947384;28;20660;-76
2022/05/31 14:47:57;;;;;;;3.63;1.73;;;;;;;27.77;22.02;98209.19;6951131;28;20645;-77
2022/05/31 14:51:32;;;;;;;2.20;1.47;;;;;;;27.17;21.93;98200.16;6952080;28;20230;-77
2022/05/31 14:55:06;;;;;;;2.80;1.70;;;;;;;27.73;21.74;98201.84;6951623;28;20698;-77
2022/05/31 14:58:41;;;;;;;2.27;1.80;;;;;;;27.39;21.56;98202.75;6949909;28;20222;-77
2022/05/31 15:02:04;;;;;;;2.20;1.60;;;;;;;27.86;21.96;98187.81;6943619;28;20221;-77
2022/05/31 15:05:27;;;;;;;3.40;1.97;;;;;;;27.05;22.23;98208.28;6951695;28;20358;-77
2022/05/31 15:09:01;;;;;;;2.20;1.70;;;;;;;27.57;21.86;98198.81;6951315;28;20237;-76
2022/05/31 15:19:41;;;;;;;4.60;1.50;;;;;;;27.76;21.22;98195.63;6950829;28;20730;-77
2022/05/31 15:23:05;;;;;;;1.60;1.33;;;;;;;28.00;21.56;98193.13;6950940;28;20210;-76
2022/05/31 15:26:28;;;;;;;1.63;1.53;;;;;;;27.16;21.38;98200.47;6951552;28;20211;-77
2022/05/31 15:29:50;;;;;;;3.97;1.90;;;;;;;26.82;21.68;98192.97;6923980;28;20216;-76
2022/05/31 15:33:12;;;;;;;2.40;1.87;;;;;;;27.13;22.00;98201.13;6948071;28;20207;-77
2022/05/31 15:36:35;;;;;;;2.47;1.63;;;;;;;26.49;22.30;98193.72;6950832;28;20212;-77
2022/05/31 15:39:57;;;;;;;5.13;1.70;;;;;;;26.40;22.38;98204.75;6949481;28;20693;-76
2022/05/31 15:46:56;;;;;;;1.87;1.50;;;;;;;26.14;23.11;98214.09;6947515;28;20209;-78
2022/05/31 15:50:18;;;;;;;2.20;2.00;;;;;;;26.07;22.96;98222.03;6949109;28;20927;-77
2022/05/31 15:53:39;;;;;;;3.53;1.70;;;;;;;26.06;23.06;98221.22;6949335;28;20246;-77
2022/05/31 15:57:01;;;;;;;2.00;1.67;;;;;;;25.95;23.33;98219.06;6949040;28;20246;-77
2022/05/31 16:00:25;;;;;;;1.63;1.50;;;;;;;25.70;23.45;98208.66;6921652;28;20240;-76
2022/05/31 16:03:46;;;;;;;2.90;1.73;;;;;;;25.80;23.46;98214.72;6922594;28;20222;-77
2022/05/31 16:07:11;;;;;;;2.30;1.80;;;;;;;25.98;23.25;98215.66;6922149;28;20233;-77
2022/05/31 16:10:34;;;;;;;2.87;2.00;;;;;;;26.48;22.85;98220.53;6921529;28;20312;-76
2022/05/31 16:13:56;;;;;;;2.87;1.80;;;;;;;26.09;23.28;98212.28;6922222;28;20205;-77
2022/05/31 16:17:19;;;;;;;3.10;2.10;;;;;;;26.22;23.01;98224.34;6921936;28;20206;-77
2022/05/31 16:20:43;;;;;;;3.87;1.80;;;;;;;26.07;23.42;98225.59;6921009;28;20231;-77
2022/05/31 16:24:06;;;;;;;2.70;1.77;;;;;;;26.11;23.41;98228.53;6921637;28;20306;-77
2022/05/31 16:27:29;;;;;;;1.83;1.73;;;;;;;26.39;23.00;98221.66;6921392;28;20218;-78
2022/05/31 16:30:51;;;;;;;3.70;1.67;;;;;;;26.09;23.41;98231.63;6920609;28;20231;-77
2022/05/31 16:34:14;;;;;;;5.87;2.10;;;;;;;26.03;23.36;98224.63;6921200;28;20660;-78
2022/05/31 16:41:17;;;;;;;4.37;1.53;;;;;;;26.39;22.23;98186.53;6944451;28;20284;-77
2022/05/31 16:44:39;;;;;;;3.13;1.80;;;;;;;26.81;22.99;98219.00;6944820;28;20203;-77
2022/05/31 16:48:01;;;;;;;3.93;1.70;;;;;;;26.88;22.70;98210.19;6946286;28;20668;-77
2022/05/31 16:51:27;;;;;;;4.27;1.93;;;;;;;27.26;21.80;98228.63;6958763;28;20222;-80
2022/05/31 16:54:48;;;;;;;1.53;1.43;;;;;;;27.24;22.26;98222.63;6952469;28;20195;-78
2022/05/31 16:58:10;;;;;;;2.33;1.77;;;;;;;27.21;24.54;98228.81;6946188;28;20179;-77